Hulin, China
Current Conditions -  °F | °C
As of 1:30 PM on Thursday 18 Dec 2014 (Local Time) from UHWW Reporting Station
Clear Clear  
Wind Chill: -13°   Ceiling: Unl
Heat Index:   Visibility: 6mi
Dew Point: -15°   Wind: 16mph
Humidity: 40%   Direction: 20°NNE
Pressure: 30.45"   Gusts: NA
Location:  45.77°N, 132.97°E
Report Text: UHWW 180530Z 02007MPS 9999 SKC M15/M26 Q1031 WS RWY07R NOSIGRMK 530005 QFE772/1030 57CLRD60
Loading
Personal Weather Stations






























Interactive Weather Map New forecast layout! Learn more

10-Day Weather Forecast

Advertisements
Track Severe Weather on mobile